Rms Queen Mary 2 — ZCEF6 — position and weather

sailwx.info

Track history (hours):
 
Tides and Currents Weather Stations Pressure Air Temp Water Temp Dewpoint Dewpoint Depression Visibility Wind Speed Wind Dir Waves Ship Positions

Rms Queen Mary 2

Last reported at 2019-Apr-24 16:00 UTC. Time now 2019-Apr-26 04:33 UTC.
Position N 42°24' W 043°30'.

Length 345 m; draft 10.3 m.

Type: Passenger vessel. MMSI: 310627000.

Wind from 150 at 12 knots

Barometer 1021.3 mb
Air temperature 16.0 ° C
Visibility: greater than 10.8 NM
Dewpoint 12.4 ° C
Water temperature 17.0 ° C

Date/timePositionNaut miles runAvg speedWind from/ knotsBaromVisibWave heightAir tempDewpointWater temp
2019-Apr-24 16:00N 42°24' W 043°30'10526.3 150 / 121021.310.8 16.012.417.0
2019-Apr-24 12:00N 41°36' W 045°36'42423.5 160 / 101021.827.0 16.513.916.1
2019-Apr-23 18:00N 40°42' W 054°54'51422.4 160 / 241021.910.8 19.515.318.0
2019-Apr-22 19:00N 40°36' W 066°12'33518.1 160 / 401016.5 2.2 15.513.711.2
2019-Apr-22 00:29N 40°25' W 073°33'5 9.7
2019-Apr-22 00:00N 40°25' W 073°39'5 9.8
2019-Apr-21 23:30N 40°26' W 073°45'4 8.7
2019-Apr-21 23:00N 40°27' W 073°51'6 9.8
2019-Apr-21 22:25N 40°30' W 073°57'714.2
2019-Apr-21 21:54N 40°36' W 074°03'410.5
2019-Apr-21 21:30N 40°40' W 074°02'1 2.5
2019-Apr-21 21:01N 40°41' W 074°01'0 0.0
2019-Apr-21 20:31N 40°41' W 074°01'0 0.0
2019-Apr-21 20:01N 40°41' W 074°01'0 0.0
2019-Apr-21 19:31N 40°41' W 074°01'0 0.0
2019-Apr-21 18:58N 40°41' W 074°01'0 0.0
2019-Apr-21 18:31N 40°41' W 074°01'0 0.0
2019-Apr-21 17:59N 40°41' W 074°01'0 0.0
2019-Apr-21 17:29N 40°41' W 074°01'0 0.0
2019-Apr-21 16:59N 40°41' W 074°01'0 0.0
2019-Apr-21 16:29N 40°41' W 074°01'0 0.0
2019-Apr-21 15:59N 40°41' W 074°01'0 0.0
2019-Apr-21 15:29N 40°41' W 074°01'0 0.0
2019-Apr-21 14:59N 40°41' W 074°01'0 0.0
2019-Apr-21 14:29N 40°41' W 074°01'0 0.0
2019-Apr-21 13:59N 40°41' W 074°01'0 0.0
2019-Apr-21 13:29N 40°41' W 074°01'0 0.0
2019-Apr-21 12:59N 40°41' W 074°01'0 0.0
2019-Apr-21 12:29N 40°41' W 074°01'0 0.0
2019-Apr-21 11:59N 40°41' W 074°01'0 0.0
2019-Apr-21 11:29N 40°41' W 074°01'0 0.0
2019-Apr-21 10:59N 40°41' W 074°01'0 0.0
2019-Apr-21 10:30N 40°41' W 074°01'0 0.9
2019-Apr-21 10:00N 40°41' W 074°01'2 3.7
2019-Apr-21 09:30N 40°39' W 074°03'713.0
2019-Apr-21 09:00N 40°33' W 074°02'612.8
2019-Apr-21 08:30N 40°29' W 073°55'5 9.1
2019-Apr-21 08:00N 40°28' W 073°49'7 8.3
2019-Apr-21 07:08N 40°28' W 073°40'1 9.9
2019-Apr-21 07:01N 40°28' W 073°38'5 9.8
2019-Apr-21 06:29N 40°28' W 073°31'3113.3
2019-Apr-21 04:10N 40°30' W 072°51'73819.8
2019-Apr-19 15:00N 40°18' W 056°42'48920.4 210 / 111031.110.8 13.0 1.317.3
2019-Apr-18 15:00N 41°06' W 046°00'11318.8 320 / 261012.910.8 8.0 3.316.4
2019-Apr-18 09:00N 42°00' W 043°48'16120.2 280 / 501003.410.8 11.0 4.316.6
2019-Apr-18 01:00N 43°18' W 040°36'16820.9 230 / 301002.527.0 13.510.613.5
2019-Apr-17 17:00N 44°30' W 037°06'15522.1 230 / 30999.710.8 15.0 9.212.3
2019-Apr-17 10:00N 45°36' W 033°48'10320.5 220 / 311000.4 5.4 14.012.512.4
2019-Apr-17 05:00N 46°12' W 031°30'18921.0 240 / 181006.810.8 11.0 4.311.9
2019-Apr-16 20:00N 47°06' W 027°06'23719.8 350 / 461003.910.8 10.0 3.111.9
2019-Apr-16 08:00N 48°18' W 021°30'67822.0 180 / 13990.710.8 13.011.112.1
2019-Apr-15 01:11N 49°58' W 004°25'621.1
2019-Apr-15 00:55N 49°59' W 004°17'921.3
2019-Apr-15 00:30N 50°01' W 004°03'1121.6
2019-Apr-15 00:00N 50°03' W 003°47'1121.9
2019-Apr-14 23:30N 50°05' W 003°30'1122.3
2019-Apr-14 23:00N 50°08' W 003°13'1122.6
2019-Apr-14 22:31N 50°11' W 002°56'1123.0
2019-Apr-14 22:00N 50°13' W 002°39'2623.6
2019-Apr-14 20:54N 50°19' W 001°59'1023.5
2019-Apr-14 20:28N 50°22' W 001°44'1623.1
2019-Apr-14 19:47N 50°28' W 001°21'622.9
2019-Apr-14 19:31N 50°30' W 001°12'1020.1
2019-Apr-14 19:00N 50°36' W 000°58'612.3
2019-Apr-14 18:31N 50°42' W 000°57'714.4
2019-Apr-14 18:01N 50°45' W 001°07'815.3
2019-Apr-14 17:30N 50°47' W 001°19'4 8.4
2019-Apr-14 17:00N 50°51' W 001°21'3 6.0
2019-Apr-14 16:30N 50°53' W 001°24'  
Track history (hours):
 
Tides and Currents Weather Stations Pressure Air Temp Water Temp Dewpoint Dewpoint Depression Visibility Wind Speed Wind Dir Waves Ship Positions

Rms Queen Mary 2

Last reported at 2019-Apr-24 16:00 UTC. Time now 2019-Apr-26 04:33 UTC.
Position N 42°24' W 043°30'.

Length 345 m; draft 10.3 m.

Type: Passenger vessel. MMSI: 310627000.

Wind from 150 at 12 knots

Barometer 1021.3 mb
Air temperature 16.0 ° C
Visibility: greater than 10.8 NM
Dewpoint 12.4 ° C
Water temperature 17.0 ° C

Date/timePositionNaut miles runAvg speedWind from/ knotsBaromVisibWave heightAir tempDewpointWater temp
2019-Apr-24 16:00N 42°24' W 043°30'10526.3 150 / 121021.310.8 16.012.417.0
2019-Apr-24 12:00N 41°36' W 045°36'42423.5 160 / 101021.827.0 16.513.916.1
2019-Apr-23 18:00N 40°42' W 054°54'51422.4 160 / 241021.910.8 19.515.318.0
2019-Apr-22 19:00N 40°36' W 066°12'33518.1 160 / 401016.5 2.2 15.513.711.2
2019-Apr-22 00:29N 40°25' W 073°33'5 9.7
2019-Apr-22 00:00N 40°25' W 073°39'5 9.8
2019-Apr-21 23:30N 40°26' W 073°45'4 8.7
2019-Apr-21 23:00N 40°27' W 073°51'6 9.8
2019-Apr-21 22:25N 40°30' W 073°57'714.2
2019-Apr-21 21:54N 40°36' W 074°03'410.5
2019-Apr-21 21:30N 40°40' W 074°02'1 2.5
2019-Apr-21 21:01N 40°41' W 074°01'0 0.0
2019-Apr-21 20:31N 40°41' W 074°01'0 0.0
2019-Apr-21 20:01N 40°41' W 074°01'0 0.0
2019-Apr-21 19:31N 40°41' W 074°01'0 0.0
2019-Apr-21 18:58N 40°41' W 074°01'0 0.0
2019-Apr-21 18:31N 40°41' W 074°01'0 0.0
2019-Apr-21 17:59N 40°41' W 074°01'0 0.0
2019-Apr-21 17:29N 40°41' W 074°01'0 0.0
2019-Apr-21 16:59N 40°41' W 074°01'0 0.0
2019-Apr-21 16:29N 40°41' W 074°01'0 0.0
2019-Apr-21 15:59N 40°41' W 074°01'0 0.0
2019-Apr-21 15:29N 40°41' W 074°01'0 0.0
2019-Apr-21 14:59N 40°41' W 074°01'0 0.0
2019-Apr-21 14:29N 40°41' W 074°01'0 0.0
2019-Apr-21 13:59N 40°41' W 074°01'0 0.0
2019-Apr-21 13:29N 40°41' W 074°01'0 0.0
2019-Apr-21 12:59N 40°41' W 074°01'0 0.0
2019-Apr-21 12:29N 40°41' W 074°01'0 0.0
2019-Apr-21 11:59N 40°41' W 074°01'0 0.0
2019-Apr-21 11:29N 40°41' W 074°01'0 0.0
2019-Apr-21 10:59N 40°41' W 074°01'0 0.0
2019-Apr-21 10:30N 40°41' W 074°01'0 0.9
2019-Apr-21 10:00N 40°41' W 074°01'2 3.7
2019-Apr-21 09:30N 40°39' W 074°03'713.0
2019-Apr-21 09:00N 40°33' W 074°02'612.8
2019-Apr-21 08:30N 40°29' W 073°55'5 9.1
2019-Apr-21 08:00N 40°28' W 073°49'7 8.3
2019-Apr-21 07:08N 40°28' W 073°40'1 9.9
2019-Apr-21 07:01N 40°28' W 073°38'5 9.8
2019-Apr-21 06:29N 40°28' W 073°31'3113.3
2019-Apr-21 04:10N 40°30' W 072°51'73819.8
2019-Apr-19 15:00N 40°18' W 056°42'48920.4 210 / 111031.110.8 13.0 1.317.3
2019-Apr-18 15:00N 41°06' W 046°00'11318.8 320 / 261012.910.8 8.0 3.316.4
2019-Apr-18 09:00N 42°00' W 043°48'16120.2 280 / 501003.410.8 11.0 4.316.6
2019-Apr-18 01:00N 43°18' W 040°36'16820.9 230 / 301002.527.0 13.510.613.5
2019-Apr-17 17:00N 44°30' W 037°06'15522.1 230 / 30999.710.8 15.0 9.212.3
2019-Apr-17 10:00N 45°36' W 033°48'10320.5 220 / 311000.4 5.4 14.012.512.4
2019-Apr-17 05:00N 46°12' W 031°30'18921.0 240 / 181006.810.8 11.0 4.311.9
2019-Apr-16 20:00N 47°06' W 027°06'23719.8 350 / 461003.910.8 10.0 3.111.9
2019-Apr-16 08:00N 48°18' W 021°30'67822.0 180 / 13990.710.8 13.011.112.1
2019-Apr-15 01:11N 49°58' W 004°25'621.1
2019-Apr-15 00:55N 49°59' W 004°17'921.3
2019-Apr-15 00:30N 50°01' W 004°03'1121.6
2019-Apr-15 00:00N 50°03' W 003°47'1121.9
2019-Apr-14 23:30N 50°05' W 003°30'1122.3
2019-Apr-14 23:00N 50°08' W 003°13'1122.6
2019-Apr-14 22:31N 50°11' W 002°56'1123.0
2019-Apr-14 22:00N 50°13' W 002°39'2623.6
2019-Apr-14 20:54N 50°19' W 001°59'1023.5
2019-Apr-14 20:28N 50°22' W 001°44'1623.1
2019-Apr-14 19:47N 50°28' W 001°21'622.9
2019-Apr-14 19:31N 50°30' W 001°12'1020.1
2019-Apr-14 19:00N 50°36' W 000°58'612.3
2019-Apr-14 18:31N 50°42' W 000°57'714.4
2019-Apr-14 18:01N 50°45' W 001°07'815.3
2019-Apr-14 17:30N 50°47' W 001°19'4 8.4
2019-Apr-14 17:00N 50°51' W 001°21'3 6.0
2019-Apr-14 16:30N 50°53' W 001°24'  

Dump ship's entire track history